Time;durP1;ratioP1;P1;durP2;ratioP2;P2;SDS_P1;SDS_P2;PMS_P1;PMS_P2;Temp;Humidity;BMP_temperature;BMP_pressure;BME280_temperature;BME280_humidity;BME280_pressure;Samples;Min_cycle;Max_cycle;Signal;HPM_P1;HPM_P2
2022/01/07 00:00:12;;;;;;;21.50;14.17;;;;;;;5.93;nan;-23982.28;5051076;28;20233;-67
2022/01/07 00:02:38;;;;;;;21.77;13.53;;;;;;;6.27;nan;-23991.94;5050993;28;20159;-68
2022/01/07 00:05:04;;;;;;;22.73;12.77;;;;;;;6.21;nan;-23990.25;5053856;28;20179;-69
2022/01/07 00:07:29;;;;;;;24.47;13.67;;;;;;;6.29;nan;-23992.50;5053688;28;20214;-68
2022/01/07 00:09:54;;;;;;;19.97;12.93;;;;;;;6.24;nan;-23990.94;5054362;28;20174;-68
2022/01/07 00:12:22;;;;;;;22.97;12.27;;;;;;;6.06;nan;-23986.13;5054596;28;20561;-68
2022/01/07 00:14:48;;;;;;;22.80;12.73;;;;;;;5.98;nan;-23983.84;5054157;28;20555;-68
2022/01/07 00:17:14;;;;;;;19.73;13.20;;;;;;;6.40;nan;-23995.63;5054431;28;20159;-68
2022/01/07 00:19:39;;;;;;;20.13;12.17;;;;;;;6.58;nan;-24000.59;5054380;28;20233;-68
2022/01/07 00:22:05;;;;;;;18.37;12.43;;;;;;;6.32;nan;-23993.22;5053993;28;20240;-68
2022/01/07 00:24:30;;;;;;;21.43;12.00;;;;;;;6.52;nan;-23999.03;5036132;28;20170;-68
2022/01/07 00:26:56;;;;;;;20.93;12.87;;;;;;;6.57;nan;-24000.47;5054307;28;20248;-67
2022/01/07 00:29:21;;;;;;;19.83;12.50;;;;;;;6.53;nan;-23999.19;5054375;28;20634;-68
2022/01/07 00:31:47;;;;;;;19.83;12.30;;;;;;;6.09;nan;-23986.97;5053933;28;20174;-68
2022/01/07 00:34:12;;;;;;;20.97;11.90;;;;;;;5.80;nan;-23978.72;5054032;28;20167;-68
2022/01/07 00:36:37;;;;;;;19.13;12.13;;;;;;;6.41;nan;-23995.78;5054124;28;20166;-68
2022/01/07 00:39:03;;;;;;;20.33;11.47;;;;;;;6.33;nan;-23993.66;5054003;28;20824;-68
2022/01/07 00:41:28;;;;;;;20.93;11.97;;;;;;;5.92;nan;-23982.00;5054047;28;20557;-68
2022/01/07 00:43:54;;;;;;;19.30;11.73;;;;;;;5.86;nan;-23980.28;5047872;28;20250;-69
2022/01/07 00:46:20;;;;;;;16.77;11.17;;;;;;;6.31;nan;-23993.09;5054363;28;20543;-68
2022/01/07 00:48:46;;;;;;;18.87;11.60;;;;;;;6.05;nan;-23985.84;5054339;28;20214;-68
2022/01/07 00:51:12;;;;;;;20.00;11.63;;;;;;;6.05;nan;-23985.69;5053983;28;20233;-68
2022/01/07 00:53:37;;;;;;;19.30;11.73;;;;;;;6.18;nan;-23989.38;5054215;28;20186;-68
2022/01/07 00:56:03;;;;;;;19.83;11.63;;;;;;;6.02;nan;-23984.84;5048085;28;20187;-68
2022/01/07 00:58:29;;;;;;;22.07;11.93;;;;;;;5.63;nan;-23974.03;5041796;28;20218;-68
2022/01/07 01:00:54;;;;;;;18.73;11.13;;;;;;;5.59;nan;-23972.75;5039427;28;20214;-68
2022/01/07 01:03:20;;;;;;;19.33;12.23;;;;;;;6.02;nan;-23984.97;5049551;28;20550;-68
2022/01/07 01:05:46;;;;;;;18.63;11.67;;;;;;;6.08;nan;-23986.69;5054173;28;20546;-68
2022/01/07 01:08:12;;;;;;;17.10;11.10;;;;;;;6.06;nan;-23986.13;5054092;28;20198;-67
2022/01/07 01:10:37;;;;;;;21.97;11.27;;;;;;;5.79;nan;-23978.44;5053975;28;20655;-68
2022/01/07 01:13:03;;;;;;;19.03;11.87;;;;;;;6.02;nan;-23984.97;5054070;28;20181;-67
2022/01/07 01:15:29;;;;;;;18.80;11.93;;;;;;;5.95;nan;-23982.84;5052370;28;20183;-67
2022/01/07 01:17:56;;;;;;;17.37;10.97;;;;;;;5.87;nan;-23980.72;5053717;28;20193;-72
2022/01/07 01:20:23;;;;;;;20.03;11.83;;;;;;;5.67;nan;-23975.19;5053573;28;20595;-69
2022/01/07 01:22:49;;;;;;;20.47;12.03;;;;;;;5.88;nan;-23981.00;5044106;28;20291;-67
2022/01/07 01:25:14;;;;;;;19.27;11.50;;;;;;;5.66;nan;-23974.75;5051332;28;20236;-68
2022/01/07 01:27:40;;;;;;;18.00;11.23;;;;;;;5.46;nan;-23969.22;5053685;28;20669;-68
2022/01/07 01:30:08;;;;;;;19.93;11.53;;;;;;;6.02;nan;-23984.84;5053416;28;20179;-67
2022/01/07 01:32:34;;;;;;;16.13;10.90;;;;;;;5.72;nan;-23976.47;5053223;28;20267;-67
2022/01/07 01:34:59;;;;;;;15.97;10.50;;;;;;;5.49;nan;-23970.06;5053150;28;20186;-67
2022/01/07 01:37:25;;;;;;;16.70;10.20;;;;;;;5.45;nan;-23968.78;5053653;28;20273;-68
2022/01/07 01:39:50;;;;;;;17.10;10.37;;;;;;;5.20;nan;-23961.97;5053597;28;20266;-68
2022/01/07 01:42:16;;;;;;;16.97;10.50;;;;;;;6.06;nan;-23985.97;5053140;28;20175;-68
2022/01/07 01:44:41;;;;;;;17.37;10.13;;;;;;;6.10;nan;-23987.13;5053261;28;20213;-68
2022/01/07 01:47:07;;;;;;;15.57;9.60;;;;;;;5.74;nan;-23977.03;5053294;28;20194;-69
2022/01/07 01:49:32;;;;;;;15.80;10.40;;;;;;;6.09;nan;-23986.84;5053126;28;20182;-67
2022/01/07 01:51:57;;;;;;;16.37;10.27;;;;;;;6.23;nan;-23990.81;5052994;28;20232;-68
2022/01/07 01:54:23;;;;;;;15.20;10.17;;;;;;;6.14;nan;-23988.25;5049435;28;20572;-67
2022/01/07 01:56:49;;;;;;;15.37;9.77;;;;;;;6.07;nan;-23986.41;5044373;28;20186;-68
2022/01/07 01:59:23;;;;;;;14.40;9.60;;;;;;;5.88;nan;-23981.00;5050210;28;20186;-67
2022/01/07 02:01:48;;;;;;;15.60;9.27;;;;;;;6.11;nan;-23987.41;5053259;28;20265;-68
2022/01/07 02:04:14;;;;;;;15.90;9.50;;;;;;;5.79;nan;-23978.59;5052979;28;20597;-67
2022/01/07 02:06:39;;;;;;;15.73;9.80;;;;;;;6.08;nan;-23986.69;5052637;28;20178;-68
2022/01/07 02:09:05;;;;;;;17.03;10.60;;;;;;;5.75;nan;-23977.44;5052682;28;20170;-68
2022/01/07 02:11:34;;;;;;;17.97;10.63;;;;;;;6.07;nan;-23986.41;5052431;28;20256;-69
2022/01/07 02:13:59;;;;;;;19.90;10.80;;;;;;;5.66;nan;-23974.91;5052649;28;20179;-67
2022/01/07 02:16:26;;;;;;;16.40;10.43;;;;;;;5.74;nan;-23977.03;5052785;28;20631;-68
2022/01/07 02:18:51;;;;;;;19.00;11.13;;;;;;;5.23;nan;-23962.66;5034813;28;20265;-68
2022/01/07 02:21:16;;;;;;;16.37;10.13;;;;;;;5.68;nan;-23975.31;5052176;28;20245;-67
2022/01/07 02:23:42;;;;;;;16.33;10.33;;;;;;;5.67;nan;-23975.19;5052577;28;20229;-67
2022/01/07 02:26:07;;;;;;;17.30;10.27;;;;;;;5.31;nan;-23965.09;5052217;28;20178;-69
2022/01/07 02:28:34;;;;;;;16.87;10.40;;;;;;;5.19;nan;-23961.66;5051983;28;20677;-69
2022/01/07 02:30:59;;;;;;;18.70;10.90;;;;;;;5.57;nan;-23972.19;5052310;28;20186;-67
2022/01/07 02:33:25;;;;;;;19.07;11.07;;;;;;;5.51;nan;-23970.47;5052545;28;20171;-67
2022/01/07 02:35:50;;;;;;;17.27;10.37;;;;;;;5.53;nan;-23971.06;5052284;28;20250;-68
2022/01/07 02:38:16;;;;;;;16.77;10.50;;;;;;;5.14;nan;-23960.25;5052044;28;20260;-67
2022/01/07 02:40:42;;;;;;;16.40;10.07;;;;;;;5.15;nan;-23960.41;5051980;28;20182;-70
2022/01/07 02:43:08;;;;;;;18.40;10.53;;;;;;;5.62;nan;-23973.63;5052365;28;20264;-67
2022/01/07 02:45:34;;;;;;;18.90;10.33;;;;;;;5.41;nan;-23967.66;5033876;28;20557;-67
2022/01/07 02:48:02;;;;;;;17.00;10.10;;;;;;;5.54;nan;-23971.34;5052179;28;20211;-68
2022/01/07 02:50:34;;;;;;;15.73;9.90;;;;;;;5.32;nan;-23965.38;5051791;28;20257;-67
2022/01/07 02:53:00;;;;;;;19.10;10.17;;;;;;;5.33;nan;-23965.66;5051533;28;20607;-67
2022/01/07 02:55:26;;;;;;;15.27;9.97;;;;;;;5.52;nan;-23970.91;5051663;28;20175;-68
2022/01/07 02:57:54;;;;;;;16.00;9.63;;;;;;;5.73;nan;-23976.88;5051370;28;20248;-67
2022/01/07 03:00:21;;;;;;;16.47;9.87;;;;;;;5.45;nan;-23968.94;5051661;28;20202;-67
2022/01/07 03:02:48;;;;;;;15.83;9.80;;;;;;;5.24;nan;-23962.94;5051824;28;20178;-66
2022/01/07 03:05:15;;;;;;;16.07;9.80;;;;;;;5.87;nan;-23980.59;5050974;28;20574;-68
2022/01/07 03:07:47;;;;;;;14.53;9.63;;;;;;;5.27;nan;-23963.94;5044090;28;20773;-67
2022/01/07 03:10:13;;;;;;;16.47;9.87;;;;;;;5.50;nan;-23970.34;5051620;28;20174;-67
2022/01/07 03:12:40;;;;;;;15.53;9.47;;;;;;;5.36;nan;-23966.22;5051840;28;20537;-68
2022/01/07 03:15:07;;;;;;;16.93;10.33;;;;;;;5.45;nan;-23968.78;5051675;28;20182;-68
2022/01/07 03:17:32;;;;;;;14.90;9.03;;;;;;;5.65;nan;-23974.47;5033747;28;20559;-69
2022/01/07 03:19:58;;;;;;;15.33;9.40;;;;;;;5.92;nan;-23982.00;5033565;28;20178;-68
2022/01/07 03:22:23;;;;;;;15.90;10.27;;;;;;;5.56;nan;-23971.91;5051616;28;20260;-69
2022/01/07 03:24:48;;;;;;;15.23;10.03;;;;;;;5.16;nan;-23960.81;5051212;28;20174;-68
2022/01/07 03:27:14;;;;;;;15.97;9.90;;;;;;;5.89;nan;-23981.16;5051118;28;20753;-67
2022/01/07 03:29:39;;;;;;;17.07;9.67;;;;;;;5.81;nan;-23978.88;5033397;28;20174;-67
2022/01/07 03:32:05;;;;;;;16.00;9.83;;;;;;;5.90;nan;-23981.56;5051444;28;20163;-67
2022/01/07 03:34:31;;;;;;;17.93;9.97;;;;;;;5.89;nan;-23981.16;5051295;28;20197;-67
2022/01/07 03:36:56;;;;;;;17.60;9.97;;;;;;;5.50;nan;-23970.22;5051064;28;20182;-67
2022/01/07 03:39:22;;;;;;;16.13;10.40;;;;;;;5.33;nan;-23965.66;5050695;28;20188;-67
2022/01/07 03:41:47;;;;;;;15.03;9.80;;;;;;;5.42;nan;-23968.06;5055030;28;20169;-67
2022/01/07 03:44:13;;;;;;;15.57;10.43;;;;;;;5.68;nan;-23975.47;5054938;28;20174;-68
2022/01/07 03:46:38;;;;;;;17.33;10.07;;;;;;;5.87;nan;-23980.59;5055068;28;20166;-67
2022/01/07 03:49:04;;;;;;;18.73;11.30;;;;;;;5.88;nan;-23981.00;5054639;28;20220;-67
2022/01/07 03:51:29;;;;;;;18.00;10.23;;;;;;;5.55;nan;-23971.75;5054644;28;20217;-67
2022/01/07 03:53:55;;;;;;;16.10;10.63;;;;;;;5.27;nan;-23963.94;5054897;28;20187;-68
2022/01/07 03:56:20;;;;;;;17.90;10.97;;;;;;;5.33;nan;-23965.66;5055009;28;20212;-68
2022/01/07 03:58:46;;;;;;;17.33;10.83;;;;;;;5.26;nan;-23963.66;5054720;28;20170;-68
2022/01/07 04:01:11;;;;;;;18.17;10.47;;;;;;;5.84;nan;-23979.72;5054323;28;20186;-66
2022/01/07 04:03:37;;;;;;;19.03;10.63;;;;;;;5.43;nan;-23968.34;5054487;28;20213;-69
2022/01/07 04:06:02;;;;;;;18.73;10.30;;;;;;;5.66;nan;-23974.91;5054770;28;20163;-67
2022/01/07 04:08:28;;;;;;;16.70;10.20;;;;;;;5.79;nan;-23978.59;5054266;28;20256;-68
2022/01/07 04:10:54;;;;;;;18.47;10.53;;;;;;;5.76;nan;-23977.75;5055078;28;20175;-68
2022/01/07 04:13:19;;;;;;;21.57;10.57;;;;;;;5.38;nan;-23966.78;5036685;28;20194;-68
2022/01/07 04:15:44;;;;;;;15.30;9.77;;;;;;;5.35;nan;-23966.09;5054776;28;20170;-68
2022/01/07 04:18:10;;;;;;;16.13;9.97;;;;;;;5.75;nan;-23977.31;5054305;28;20179;-68
2022/01/07 04:20:36;;;;;;;17.70;10.13;;;;;;;5.67;nan;-23975.19;5049633;28;20180;-68
2022/01/07 04:23:05;;;;;;;17.03;10.00;;;;;;;5.50;nan;-23970.34;5053482;28;20570;-68
2022/01/07 04:25:31;;;;;;;15.43;9.77;;;;;;;5.30;nan;-23964.81;5054545;28;20288;-68
2022/01/07 04:28:05;;;;;;;18.93;10.20;;;;;;;5.82;nan;-23979.31;5054328;28;20210;-68
2022/01/07 04:30:34;;;;;;;16.13;8.93;;;;;;;5.60;nan;-23973.03;5036359;28;20285;-68
2022/01/07 04:33:01;;;;;;;14.40;8.80;;;;;;;5.31;nan;-23964.94;5054435;28;20674;-67
2022/01/07 04:35:28;;;;;;;14.47;9.47;;;;;;;5.29;nan;-23964.50;5036235;28;20178;-67
2022/01/07 04:37:53;;;;;;;15.40;9.53;;;;;;;5.45;nan;-23968.78;5054577;28;20182;-68
2022/01/07 04:40:19;;;;;;;17.67;9.60;;;;;;;5.74;nan;-23977.16;5054308;28;20699;-68
2022/01/07 04:42:45;;;;;;;16.33;9.27;;;;;;;5.42;nan;-23967.94;5036144;28;20649;-68
2022/01/07 04:45:12;;;;;;;16.67;9.63;;;;;;;5.62;nan;-23973.63;5042879;28;20194;-68
2022/01/07 04:47:38;;;;;;;16.67;9.50;;;;;;;5.64;nan;-23974.31;5053738;28;20660;-68
2022/01/07 04:50:06;;;;;;;15.37;9.13;;;;;;;5.51;nan;-23970.47;5053854;28;20204;-67
2022/01/07 04:52:32;;;;;;;16.57;9.37;;;;;;;5.68;nan;-23975.31;5053993;28;20232;-68
2022/01/07 04:54:57;;;;;;;14.67;8.93;;;;;;;5.73;nan;-23976.75;5035858;28;20183;-67
2022/01/07 04:57:23;;;;;;;16.80;9.47;;;;;;;5.20;nan;-23961.97;5054177;28;20183;-69
2022/01/07 04:59:48;;;;;;;15.27;9.33;;;;;;;5.20;nan;-23961.81;5049923;28;20262;-69
2022/01/07 05:02:13;;;;;;;14.57;8.47;;;;;;;5.66;nan;-23974.75;5044771;28;20486;-69
2022/01/07 05:04:39;;;;;;;15.83;9.23;;;;;;;5.43;nan;-23968.34;5046293;28;20232;-69
2022/01/07 05:07:04;;;;;;;14.57;9.30;;;;;;;5.70;nan;-23975.88;5043106;28;20210;-69
2022/01/07 05:09:30;;;;;;;16.57;9.43;;;;;;;5.06;nan;-23957.84;5038819;28;20273;-68
2022/01/07 05:11:55;;;;;;;16.83;9.33;;;;;;;5.50;nan;-23970.22;5041161;28;20681;-69
2022/01/07 05:14:21;;;;;;;13.80;9.13;;;;;;;5.04;nan;-23957.41;5039096;28;20194;-69
2022/01/07 05:16:46;;;;;;;14.33;8.97;;;;;;;5.51;nan;-23970.47;5038304;28;20198;-66
2022/01/07 05:19:12;;;;;;;19.10;10.17;;;;;;;5.39;nan;-23967.06;5038709;28;20664;-67
2022/01/07 05:21:39;;;;;;;14.77;8.83;;;;;;;5.11;nan;-23959.41;5041505;28;20179;-67
2022/01/07 05:24:05;;;;;;;15.90;9.90;;;;;;;5.55;nan;-23971.63;5046668;28;20649;-69
2022/01/07 05:26:31;;;;;;;17.50;9.33;;;;;;;5.39;nan;-23967.22;5052686;28;20256;-67
2022/01/07 05:28:57;;;;;;;16.53;8.97;;;;;;;5.47;nan;-23969.50;5045293;28;20229;-67
2022/01/07 05:31:23;;;;;;;17.10;9.67;;;;;;;5.05;nan;-23957.53;5041711;28;20194;-68
2022/01/07 05:33:53;;;;;;;17.77;10.17;;;;;;;5.33;nan;-23965.66;5049758;28;20174;-69
2022/01/07 05:36:20;;;;;;;17.13;9.77;;;;;;;4.87;nan;-23952.72;5014764;28;20186;-69
2022/01/07 05:38:46;;;;;;;17.87;9.67;;;;;;;4.85;nan;-23952.00;5017326;28;20657;-68
2022/01/07 05:41:12;;;;;;;18.73;9.47;;;;;;;4.95;nan;-23954.84;5040885;28;20187;-68
2022/01/07 05:43:37;;;;;;;17.77;9.40;;;;;;;5.16;nan;-23960.81;5035724;28;20202;-69
2022/01/07 05:46:04;;;;;;;17.07;9.83;;;;;;;4.58;nan;-23944.31;5036429;28;20183;-68
2022/01/07 05:48:29;;;;;;;17.13;9.63;;;;;;;5.30;nan;-23964.81;5048428;28;20712;-69
2022/01/07 05:50:54;;;;;;;16.40;9.80;;;;;;;5.24;nan;-23963.09;5044019;28;20237;-67
2022/01/07 05:53:20;;;;;;;16.97;10.30;;;;;;;5.12;nan;-23959.53;5038083;28;20266;-68
2022/01/07 05:55:45;;;;;;;17.37;9.97;;;;;;;4.36;nan;-23938.19;5036580;28;20281;-67
2022/01/07 05:58:11;;;;;;;18.20;9.57;;;;;;;4.69;nan;-23947.44;5036604;28;20190;-67
2022/01/07 06:00:36;;;;;;;18.63;10.20;;;;;;;4.98;nan;-23955.56;5035543;28;20722;-68
2022/01/07 06:03:02;;;;;;;15.20;9.20;;;;;;;5.20;nan;-23961.81;5039011;28;20186;-68
2022/01/07 06:05:28;;;;;;;17.10;9.47;;;;;;;4.66;nan;-23946.59;5050153;28;20236;-69
2022/01/07 06:07:53;;;;;;;16.03;9.37;;;;;;;5.19;nan;-23961.53;5039901;28;20218;-68
2022/01/07 06:10:19;;;;;;;17.67;9.97;;;;;;;5.35;nan;-23966.09;5041819;28;20271;-70
2022/01/07 06:12:44;;;;;;;15.37;9.47;;;;;;;5.23;nan;-23962.81;5042939;28;20262;-69
2022/01/07 06:15:10;;;;;;;17.03;9.33;;;;;;;5.29;nan;-23964.38;5037859;28;20275;-69
2022/01/07 06:17:36;;;;;;;18.97;10.03;;;;;;;4.93;nan;-23954.13;5043398;28;20240;-69
2022/01/07 06:20:06;;;;;;;17.50;9.67;;;;;;;5.29;nan;-23964.38;5049014;28;20192;-69
2022/01/07 06:22:31;;;;;;;18.37;10.37;;;;;;;4.77;nan;-23949.88;5043026;28;20208;-69
2022/01/07 06:24:57;;;;;;;18.57;10.30;;;;;;;4.80;nan;-23950.56;5036747;28;20654;-68
2022/01/07 06:27:22;;;;;;;19.00;10.30;;;;;;;5.33;nan;-23965.66;5036389;28;20198;-69
2022/01/07 06:29:48;;;;;;;17.27;9.70;;;;;;;5.39;nan;-23967.22;5035760;28;20194;-70
2022/01/07 06:32:13;;;;;;;18.00;10.90;;;;;;;5.32;nan;-23965.22;5035215;28;20534;-71
2022/01/07 06:34:39;;;;;;;21.17;10.33;;;;;;;4.64;nan;-23946.03;5041843;28;20190;-70
2022/01/07 06:37:05;;;;;;;20.80;10.67;;;;;;;5.03;nan;-23956.97;5051747;28;20190;-70
2022/01/07 06:39:32;;;;;;;19.67;10.90;;;;;;;5.19;nan;-23961.66;5042038;28;20203;-70
2022/01/07 06:41:59;;;;;;;16.80;9.67;;;;;;;4.89;nan;-23953.13;5038513;28;20642;-71
2022/01/07 06:44:25;;;;;;;18.37;9.50;;;;;;;5.48;nan;-23969.78;5051170;28;20654;-70
2022/01/07 06:46:51;;;;;;;19.67;10.73;;;;;;;5.53;nan;-23971.06;5049844;28;20183;-69
2022/01/07 06:49:16;;;;;;;17.13;9.43;;;;;;;5.73;nan;-23976.75;5046703;28;20233;-60
2022/01/07 06:51:43;;;;;;;18.37;10.20;;;;;;;5.89;nan;-23981.16;5051586;28;20722;-63
2022/01/07 06:54:11;;;;;;;18.57;10.07;;;;;;;5.88;nan;-23980.88;5040688;28;20187;-61
2022/01/07 06:56:43;;;;;;;19.20;10.23;;;;;;;5.83;nan;-23979.44;5039706;28;20183;-63
2022/01/07 06:59:09;;;;;;;17.97;10.47;;;;;;;5.76;nan;-23977.75;5035315;28;20183;-63
2022/01/07 07:01:35;;;;;;;19.40;10.07;;;;;;;6.40;nan;-23995.63;5032181;28;20183;-61
2022/01/07 07:04:01;;;;;;;17.87;9.60;;;;;;;6.30;nan;-23992.66;5032105;28;20197;-64
2022/01/07 07:06:26;;;;;;;18.73;10.53;;;;;;;6.69;nan;-24003.72;5034743;28;20213;-63
2022/01/07 07:08:52;;;;;;;20.70;9.83;;;;;;;6.74;nan;-24005.16;5034836;28;20225;-62
2022/01/07 07:11:18;;;;;;;15.77;9.60;;;;;;;6.50;nan;-23998.47;5035042;28;20185;-60
2022/01/07 07:13:44;;;;;;;14.73;9.17;;;;;;;7.05;nan;-24013.94;5033383;28;20673;-62
2022/01/07 07:16:09;;;;;;;17.53;10.23;;;;;;;6.90;nan;-24009.53;5035335;28;20310;-61
2022/01/07 07:18:35;;;;;;;17.90;9.13;;;;;;;8.16;nan;-24044.84;5033740;28;20268;-72
2022/01/07 07:21:00;;;;;;;19.13;10.23;;;;;;;7.91;nan;-24037.88;5037408;28;20198;-72
2022/01/07 07:23:26;;;;;;;16.50;9.20;;;;;;;7.30;nan;-24020.75;5030064;28;20568;-72
2022/01/07 07:25:51;;;;;;;20.00;10.37;;;;;;;6.98;nan;-24011.94;5044137;28;20238;-71
2022/01/07 07:28:18;;;;;;;19.57;10.33;;;;;;;6.66;nan;-24003.00;5044050;28;20194;-71
2022/01/07 07:30:43;;;;;;;17.20;10.17;;;;;;;6.63;nan;-24002.16;5044312;28;20575;-72
2022/01/07 07:33:56;;;;;;;18.50;10.33;;;;;;;6.81;nan;-24007.13;5050846;28;20301;-71
2022/01/07 07:38:45;;;;;;;16.03;9.97;;;;;;;6.36;nan;-23994.34;5038908;28;20665;-71
2022/01/07 07:41:11;;;;;;;22.00;9.63;;;;;;;6.60;nan;-24001.19;5037310;28;20229;-71
2022/01/07 07:43:38;;;;;;;23.50;11.13;;;;;;;6.13;nan;-23988.13;5036133;28;20249;-72
2022/01/07 07:46:04;;;;;;;18.37;10.97;;;;;;;6.50;nan;-23998.47;5034758;28;20567;-72
2022/01/07 07:48:31;;;;;;;20.57;10.57;;;;;;;6.50;nan;-23998.34;5031753;28;20203;-72
2022/01/07 07:50:56;;;;;;;19.50;9.97;;;;;;;6.81;nan;-24007.13;5036566;28;20276;-73
2022/01/07 07:53:22;;;;;;;20.20;10.53;;;;;;;6.41;nan;-23995.78;5036958;28;20614;-73
2022/01/07 07:55:53;;;;;;;22.53;11.13;;;;;;;6.84;nan;-24008.00;5025080;28;20182;-72
2022/01/07 07:58:22;;;;;;;27.30;11.70;;;;;;;7.00;nan;-24012.53;5033167;28;20274;-70
2022/01/07 08:00:49;;;;;;;21.07;12.00;;;;;;;7.06;nan;-24014.22;5018059;28;20663;-72
2022/01/07 08:03:15;;;;;;;20.70;11.07;;;;;;;7.21;nan;-24018.34;5037123;28;21501;-71
2022/01/07 08:05:40;;;;;;;23.83;12.27;;;;;;;7.33;nan;-24021.75;5032555;28;20191;-72
2022/01/07 08:08:06;;;;;;;21.43;12.03;;;;;;;6.74;nan;-24005.00;5032955;28;20532;-72
2022/01/07 08:10:32;;;;;;;24.07;13.10;;;;;;;7.04;nan;-24013.50;5020863;28;20189;-73
2022/01/07 08:18:20;;;;;;;18.97;11.17;;;;;;;7.03;nan;-24013.38;5048119;28;20240;-73
2022/01/07 08:20:45;;;;;;;19.40;11.50;;;;;;;7.20;nan;-24017.91;5050443;28;20214;-71
2022/01/07 08:23:11;;;;;;;19.67;11.40;;;;;;;7.31;nan;-24021.03;5050871;28;20199;-72
2022/01/07 08:25:37;;;;;;;20.30;11.33;;;;;;;7.54;nan;-24027.56;5052423;28;20697;-72
2022/01/07 08:28:04;;;;;;;22.43;11.43;;;;;;;7.38;nan;-24023.16;5047412;28;20302;-72
2022/01/07 08:30:36;;;;;;;19.97;11.17;;;;;;;7.87;nan;-24036.75;5053172;28;20198;-71
2022/01/07 08:35:48;;;;;;;22.47;11.77;;;;;;;7.95;nan;-24039.16;5044887;28;20240;-72
2022/01/07 08:38:13;;;;;;;23.23;11.60;;;;;;;7.63;nan;-24030.09;5049919;28;20194;-72
2022/01/07 08:40:39;;;;;;;18.60;10.73;;;;;;;7.76;nan;-24033.66;5046291;28;20210;-71
2022/01/07 08:43:05;;;;;;;17.43;10.10;;;;;;;8.11;nan;-24043.56;5053239;28;20210;-72
2022/01/07 08:45:30;;;;;;;18.20;10.90;;;;;;;8.31;nan;-24049.22;5053303;28;20179;-72
2022/01/07 08:47:56;;;;;;;17.80;10.53;;;;;;;8.24;nan;-24047.09;5035260;28;20210;-72
2022/01/07 08:50:22;;;;;;;16.07;10.40;;;;;;;7.78;nan;-24034.34;5053538;28;20186;-72
2022/01/07 08:52:47;;;;;;;22.10;9.80;;;;;;;7.96;nan;-24039.44;5053825;28;20288;-72
2022/01/07 08:55:13;;;;;;;17.37;10.23;;;;;;;8.03;nan;-24041.28;5053044;28;20175;-72
2022/01/07 08:57:38;;;;;;;18.90;10.37;;;;;;;8.70;nan;-24060.13;5052841;28;20235;-72
2022/01/07 09:00:05;;;;;;;15.47;9.90;;;;;;;8.79;nan;-24062.53;5052896;28;20179;-72
2022/01/07 09:02:30;;;;;;;17.23;9.80;;;;;;;9.06;nan;-24070.03;5053577;28;20189;-71
2022/01/07 09:04:56;;;;;;;16.97;9.20;;;;;;;8.74;nan;-24061.25;5053318;28;20178;-72
2022/01/07 09:07:22;;;;;;;16.90;8.85;;;;;;;8.56;nan;-24056.16;5023776;28;20321;-71
2022/01/07 09:09:47;;;;;;;17.35;9.02;;;;;;;9.35;nan;-24078.09;5040560;28;20172;-71
2022/01/07 09:12:13;;;;;;;16.02;9.13;;;;;;;9.08;nan;-24070.59;5046328;28;20183;-73
2022/01/07 09:14:39;;;;;;;14.82;9.63;;;;;;;9.55;nan;-24083.75;5052368;28;20178;-71
2022/01/07 09:17:05;;;;;;;17.35;8.95;;;;;;;9.45;nan;-24081.06;5034981;28;20185;-71
2022/01/07 09:19:32;;;;;;;17.17;8.88;;;;;;;9.36;nan;-24078.50;5022134;28;20199;-72
2022/01/07 09:21:57;;;;;;;14.07;8.63;;;;;;;9.35;nan;-24078.09;5042313;28;20243;-72
2022/01/07 09:24:25;;;;;;;13.88;9.38;;;;;;;9.33;nan;-24077.66;5048039;28;20190;-72
2022/01/07 09:26:51;;;;;;;14.85;9.20;;;;;;;9.53;nan;-24083.16;5052784;28;20675;-72
2022/01/07 09:29:16;;;;;;;12.75;8.60;;;;;;;9.61;nan;-24085.44;5047531;28;20973;-72
2022/01/07 09:31:41;;;;;;;13.68;8.27;;;;;;;9.37;nan;-24078.66;5051473;28;20179;-73
2022/01/07 09:34:07;;;;;;;11.63;8.07;;;;;;;9.12;nan;-24071.88;5052384;28;20265;-72
2022/01/07 09:36:33;;;;;;;15.00;8.30;;;;;;;9.65;nan;-24086.56;5050255;28;20189;-74
2022/01/07 09:38:58;;;;;;;16.65;8.45;;;;;;;9.45;nan;-24081.06;5039815;28;20186;-72
2022/01/07 09:41:24;;;;;;;15.27;9.18;;;;;;;9.85;nan;-24092.06;5044328;28;20191;-74
2022/01/07 09:43:50;;;;;;;16.23;8.25;;;;;;;9.79;nan;-24090.53;5045916;28;20206;-72
2022/01/07 09:46:18;;;;;;;12.50;8.30;;;;;;;9.92;nan;-24094.06;5052207;28;20591;-72
2022/01/07 09:48:44;;;;;;;13.65;8.52;;;;;;;9.74;nan;-24089.09;5052310;28;20224;-72
2022/01/07 09:51:13;;;;;;;15.80;8.98;;;;;;;10.25;nan;-24103.38;5052919;28;20222;-70
2022/01/07 09:53:38;;;;;;;15.90;9.90;;;;;;;10.02;nan;-24097.03;5050975;28;20278;-72
2022/01/07 09:56:04;;;;;;;15.95;9.30;;;;;;;10.46;nan;-24109.16;5051601;28;20245;-71
2022/01/07 09:58:32;;;;;;;13.80;9.43;;;;;;;10.62;nan;-24113.81;5052147;28;20546;-72
2022/01/07 10:01:05;;;;;;;15.63;9.20;;;;;;;10.58;nan;-24112.69;5044018;28;20208;-72
2022/01/07 10:03:40;;;;;;;14.85;9.48;;;;;;;10.75;nan;-24117.19;5016798;28;20183;-73
2022/01/07 10:06:25;;;;;;;18.60;8.95;;;;;;;10.17;nan;-24101.13;5049382;28;20170;-73
2022/01/07 10:09:12;;;;;;;17.23;9.13;;;;;;;10.53;nan;-24111.13;5048844;28;20206;-72
2022/01/07 10:11:37;;;;;;;14.60;8.63;;;;;;;10.14;nan;-24100.25;5047239;28;20202;-72
2022/01/07 10:14:21;;;;;;;15.02;8.15;;;;;;;10.28;nan;-24104.22;5051812;28;20186;-72
2022/01/07 10:16:52;;;;;;;12.07;7.93;;;;;;;10.82;nan;-24119.31;5051590;28;20625;-73
2022/01/07 10:19:32;;;;;;;18.48;8.60;;;;;;;10.99;nan;-24123.97;5051570;28;20218;-73
2022/01/07 10:22:07;;;;;;;11.45;7.10;;;;;;;10.80;nan;-24118.63;5033969;28;20710;-72
2022/01/07 10:24:55;;;;;;;12.98;7.53;;;;;;;10.35;nan;-24106.19;5052188;28;20201;-73
2022/01/07 10:27:21;;;;;;;12.35;7.78;;;;;;;10.80;nan;-24118.63;5051713;28;20760;-73
2022/01/07 10:29:47;;;;;;;14.43;7.60;;;;;;;10.91;nan;-24121.84;5051603;28;20253;-71
2022/01/07 10:32:30;;;;;;;13.10;7.57;;;;;;;10.69;nan;-24115.50;5052035;28;20248;-72
2022/01/07 10:35:07;;;;;;;12.95;7.57;;;;;;;11.06;nan;-24126.09;5051500;28;20297;-73
2022/01/07 10:37:44;;;;;;;13.68;7.00;;;;;;;10.94;nan;-24122.56;5033859;28;20182;-73
2022/01/07 10:40:20;;;;;;;10.68;7.22;;;;;;;11.22;nan;-24130.31;5051358;28;20166;-72
2022/01/07 10:42:45;;;;;;;12.23;7.47;;;;;;;10.35;nan;-24106.06;5033693;28;20167;-72
2022/01/07 10:45:11;;;;;;;11.60;7.18;;;;;;;11.20;nan;-24129.88;5051381;28;20559;-73
2022/01/07 10:47:36;;;;;;;13.82;8.20;;;;;;;11.31;nan;-24133.00;5051499;28;20182;-71
2022/01/07 10:50:20;;;;;;;12.63;7.45;;;;;;;10.98;nan;-24123.69;5051300;28;20177;-71
2022/01/07 10:52:46;;;;;;;14.68;8.77;;;;;;;11.15;nan;-24128.47;5051052;28;20222;-72
2022/01/07 10:55:18;;;;;;;12.90;7.80;;;;;;;11.09;nan;-24126.78;5051253;28;20646;-71
2022/01/07 10:57:46;;;;;;;19.38;9.82;;;;;;;10.79;nan;-24118.34;5051270;28;20175;-72
2022/01/07 11:00:15;;;;;;;14.07;8.20;;;;;;;11.09;nan;-24126.78;5050061;28;20308;-73
2022/01/07 11:02:40;;;;;;;13.43;8.35;;;;;;;11.10;nan;-24127.06;5051469;28;20209;-72
2022/01/07 11:05:07;;;;;;;9.93;7.40;;;;;;;11.35;nan;-24134.13;5051043;28;20184;-72
2022/01/07 11:07:33;;;;;;;15.52;7.78;;;;;;;11.15;nan;-24128.34;5051229;28;20191;-72
2022/01/07 11:09:59;;;;;;;12.80;8.10;;;;;;;11.20;nan;-24129.75;5051106;28;20320;-72
2022/01/07 11:12:27;;;;;;;15.10;7.90;;;;;;;11.04;nan;-24125.53;5051642;28;20170;-69
2022/01/07 11:14:54;;;;;;;15.00;7.72;;;;;;;11.04;nan;-24125.38;5051046;28;20171;-66
2022/01/07 11:17:23;;;;;;;15.10;7.90;;;;;;;11.16;nan;-24128.63;5050912;28;20253;-68
2022/01/07 11:19:54;;;;;;;10.02;7.07;;;;;;;10.87;nan;-24120.72;5050858;28;20192;-67
2022/01/07 11:22:21;;;;;;;13.20;8.07;;;;;;;11.27;nan;-24131.72;5050977;28;20182;-68
2022/01/07 11:24:54;;;;;;;12.25;7.78;;;;;;;11.33;nan;-24133.41;5051338;28;20261;-68
2022/01/07 11:27:27;;;;;;;13.52;8.30;;;;;;;11.00;nan;-24124.41;5050838;28;20198;-69
2022/01/07 11:29:59;;;;;;;12.52;8.10;;;;;;;11.53;nan;-24139.06;5032462;28;20159;-69
2022/01/07 11:32:25;;;;;;;15.13;8.60;;;;;;;11.34;nan;-24133.69;5030286;28;20250;-69
2022/01/07 11:34:51;;;;;;;9.75;7.43;;;;;;;10.79;nan;-24118.34;5031768;28;20265;-69
2022/01/07 11:37:36;;;;;;;14.90;8.02;;;;;;;11.13;nan;-24127.78;5045833;28;20192;-70
2022/01/07 11:40:02;;;;;;;11.43;8.05;;;;;;;11.05;nan;-24125.66;5039316;28;20194;-69
2022/01/07 11:42:39;;;;;;;15.15;8.32;;;;;;;11.20;nan;-24129.75;5041706;28;20465;-69
2022/01/07 11:45:26;;;;;;;15.10;8.63;;;;;;;11.23;nan;-24130.59;5038208;28;20567;-70